Time;durP1;ratioP1;P1;durP2;ratioP2;P2;SDS_P1;SDS_P2;PMS_P1;PMS_P2;Temp;Humidity;BMP_temperature;BMP_pressure;BME280_temperature;BME280_humidity;BME280_pressure;Samples;Min_cycle;Max_cycle;Signal;HPM_P1;HPM_P2
2023/12/06 00:00:44;;;;;;;;;;;;;;;29.89;67.70;101052.28;5062649;28;70256;-34
2023/12/06 00:03:14;;;;;;;;;;;;;;;29.93;67.66;101066.25;5065640;28;66129;-34
2023/12/06 00:05:44;;;;;;;;;;;;;;;29.94;67.91;101071.44;5079322;27;69430;-35
2023/12/06 00:08:14;;;;;;;;;;;;;;;29.97;68.66;101072.88;5070965;27;66493;-35
2023/12/06 00:10:44;;;;;;;;;;;;;;;30.01;69.11;101082.25;5069218;27;70704;-35
2023/12/06 00:13:14;;;;;;;;;;;;;;;30.06;69.60;101087.84;5069741;28;65588;-34
2023/12/06 00:15:43;;;;;;;;;;;;;;;30.08;70.22;101093.88;5076188;28;70526;-35
2023/12/06 00:18:13;;;;;;;;;;;;;;;30.12;70.57;101089.72;5066228;28;66281;-35
2023/12/06 00:20:43;;;;;;;;;;;;;;;30.14;70.71;101087.63;5086340;27;70254;-35
2023/12/06 00:23:13;;;;;;;;;;;;;;;30.15;71.46;101086.59;5064861;27;66168;-35
2023/12/06 00:25:43;;;;;;;;;;;;;;;30.16;71.85;101085.56;5069252;27;71014;-35
2023/12/06 00:28:12;;;;;;;;;;;;;;;30.20;71.11;101097.63;5065143;28;66909;-36
2023/12/06 00:30:42;;;;;;;;;;;;;;;30.19;71.41;101101.34;5068460;28;70742;-36
2023/12/06 00:33:12;;;;;;;;;;;;;;;30.24;72.03;101109.72;5081688;27;66163;-35
2023/12/06 00:35:41;;;;;;;;;;;;;;;30.23;72.11;101113.47;5081572;27;70151;-35
2023/12/06 00:38:13;;;;;;;;;;;;;;;30.23;72.66;101118.88;5078846;27;66366;-35
2023/12/06 00:40:44;;;;;;;;;;;;;;;30.26;73.16;101129.28;5071756;28;70335;-36
2023/12/06 00:43:13;;;;;;;;;;;;;;;30.26;69.63;101134.69;5067486;27;65357;-36
2023/12/06 00:45:43;;;;;;;;;;;;;;;30.28;67.75;101138.03;5082058;27;70029;-35
2023/12/06 00:48:12;;;;;;;;;;;;;;;30.32;66.47;101140.31;5068664;27;66012;-35
2023/12/06 00:50:43;;;;;;;;;;;;;;;30.34;65.69;101146.31;5081998;27;70944;-34
2023/12/06 00:53:13;;;;;;;;;;;;;;;30.37;65.78;101140.50;5069523;28;66333;-36
2023/12/06 00:55:43;;;;;;;;;;;;;;;30.38;65.23;101151.13;5074751;28;69720;-36
2023/12/06 00:58:12;;;;;;;;;;;;;;;30.41;65.15;101148.00;5074173;28;65367;-35
2023/12/06 01:00:42;;;;;;;;;;;;;;;30.44;64.49;101154.84;5071013;27;70134;-35
2023/12/06 01:03:12;;;;;;;;;;;;;;;30.43;64.51;101153.22;5064799;28;67373;-35
2023/12/06 01:05:42;;;;;;;;;;;;;;;30.46;64.13;101155.50;5060640;28;70009;-35
2023/12/06 01:08:11;;;;;;;;;;;;;;;30.47;64.23;101149.03;5062176;27;66094;-35
2023/12/06 01:10:43;;;;;;;;;;;;;;;30.47;63.79;101149.84;5061070;28;70229;-35
2023/12/06 01:13:12;;;;;;;;;;;;;;;30.50;64.12;101151.31;5060126;28;65413;-35
2023/12/06 01:15:43;;;;;;;;;;;;;;;30.51;63.78;101158.41;5061466;27;70531;-35
2023/12/06 01:18:13;;;;;;;;;;;;;;;30.51;63.92;101158.41;5068389;28;66798;-35
2023/12/06 01:20:42;;;;;;;;;;;;;;;30.52;63.67;101160.06;5078533;27;70820;-37
2023/12/06 01:23:12;;;;;;;;;;;;;;;30.55;63.31;101154.22;5072487;28;67193;-34
2023/12/06 01:25:42;;;;;;;;;;;;;;;30.56;63.13;101155.88;5062069;28;70317;-35
2023/12/06 01:28:12;;;;;;;;;;;;;;;30.57;63.27;101152.13;5068622;28;66345;-35
2023/12/06 01:30:42;;;;;;;;;;;;;;;30.58;63.05;101153.78;5063284;27;69564;-35
2023/12/06 01:33:11;;;;;;;;;;;;;;;30.59;63.04;101143.78;5071924;28;66835;-35
2023/12/06 01:35:41;;;;;;;;;;;;;;;30.61;62.87;101147.13;5062429;28;69861;-35
2023/12/06 01:38:11;;;;;;;;;;;;;;;30.62;63.27;101148.78;5073355;28;67186;-36
2023/12/06 01:40:41;;;;;;;;;;;;;;;30.63;63.23;101150.44;5065608;27;70074;-36
2023/12/06 01:43:11;;;;;;;;;;;;;;;30.63;63.04;101145.88;5068716;27;66605;-37
2023/12/06 01:45:41;;;;;;;;;;;;;;;30.65;62.94;101149.19;5061683;28;69100;-36
2023/12/06 01:48:11;;;;;;;;;;;;;;;30.66;63.32;101156.25;5060906;28;67141;-35
2023/12/06 01:50:41;;;;;;;;;;;;;;;30.68;63.03;101145.25;5059594;28;70627;-35
2023/12/06 01:53:11;;;;;;;;;;;;;;;30.69;63.31;101142.28;5074613;28;66058;-35
2023/12/06 01:55:41;;;;;;;;;;;;;;;30.70;63.18;101141.28;5068741;27;70716;-35
2023/12/06 01:58:10;;;;;;;;;;;;;;;30.71;63.16;101145.63;5064218;27;65739;-34
2023/12/06 02:00:41;;;;;;;;;;;;;;;30.73;63.11;101140.84;5070756;28;70369;-36
2023/12/06 02:03:11;;;;;;;;;;;;;;;30.73;63.01;101140.84;5079287;27;66470;-36
2023/12/06 02:05:42;;;;;;;;;;;;;;;30.76;63.28;101133.31;5064796;27;70385;-36
2023/12/06 02:08:11;;;;;;;;;;;;;;;30.77;63.21;101135.81;5065659;28;66517;-36
2023/12/06 02:10:42;;;;;;;;;;;;;;;30.79;63.29;101138.34;5065027;27;69764;-36
2023/12/06 02:13:12;;;;;;;;;;;;;;;30.80;62.96;101140.84;5063106;28;65340;-36
2023/12/06 02:15:42;;;;;;;;;;;;;;;30.82;63.25;101135.22;5065643;28;69592;-36
2023/12/06 02:18:12;;;;;;;;;;;;;;;30.84;63.24;101138.53;5063094;28;67069;-35
2023/12/06 02:20:42;;;;;;;;;;;;;;;30.85;63.20;101129.38;5069543;27;70629;-36
2023/12/06 02:23:14;;;;;;;;;;;;;;;30.86;62.85;101120.19;5064549;27;66699;-35
2023/12/06 02:25:44;;;;;;;;;;;;;;;30.88;62.74;101115.41;5063678;27;70358;-35
2023/12/06 02:28:13;;;;;;;;;;;;;;;30.90;62.96;101116.03;5065494;28;67250;-35
2023/12/06 02:30:43;;;;;;;;;;;;;;;30.90;62.71;101111.44;5061342;28;69758;-35
2023/12/06 02:33:12;;;;;;;;;;;;;;;30.92;63.01;101117.47;5061903;28;66682;-35
2023/12/06 02:35:46;;;;;;;;;;;;;;;30.94;62.61;101109.13;5064300;28;71038;-35
2023/12/06 02:38:20;;;;;;;;;;;;;;;30.97;62.55;101108.69;5064626;28;58618;-35
2023/12/06 02:40:52;;;;;;;;;;;;;;;30.98;62.61;101109.50;5074483;28;70698;-35
2023/12/06 02:43:22;;;;;;;;;;;;;;;30.99;62.83;101098.47;5067144;27;66890;-35
2023/12/06 02:45:53;;;;;;;;;;;;;;;31.02;62.53;101099.91;5078045;28;70333;-35
2023/12/06 02:48:23;;;;;;;;;;;;;;;31.03;62.42;101091.56;5079510;27;66347;-35
2023/12/06 02:50:53;;;;;;;;;;;;;;;31.05;62.50;101094.88;5073451;27;70662;-35
2023/12/06 02:53:22;;;;;;;;;;;;;;;31.07;62.07;101091.97;5072841;28;66786;-35
2023/12/06 02:55:57;;;;;;;;;;;;;;;31.09;62.59;101095.28;5068211;27;70461;-35
2023/12/06 02:58:27;;;;;;;;;;;;;;;31.10;62.26;101080.72;5070827;28;67847;-34
2023/12/06 03:00:56;;;;;;;;;;;;;;;31.12;62.45;101090.28;5064550;28;70164;-35
2023/12/06 03:03:26;;;;;;;;;;;;;;;31.12;62.52;101078.59;5062331;28;66904;-35
2023/12/06 03:05:56;;;;;;;;;;;;;;;31.15;62.63;101084.44;5067862;28;69813;-36
2023/12/06 03:08:26;;;;;;;;;;;;;;;31.18;62.52;101083.16;5061665;28;67055;-35
2023/12/06 03:10:56;;;;;;;;;;;;;;;31.20;62.20;101072.09;5064979;27;69783;-35
2023/12/06 03:13:26;;;;;;;;;;;;;;;31.21;62.07;101060.22;5067699;27;66131;-35
2023/12/06 03:15:56;;;;;;;;;;;;;;;31.23;62.24;101063.53;5077357;28;70611;-35
2023/12/06 03:18:27;;;;;;;;;;;;;;;31.25;62.15;101056.00;5063492;27;66922;-35
2023/12/06 03:20:57;;;;;;;;;;;;;;;31.27;62.23;101051.22;5062358;28;70019;-36
2023/12/06 03:23:26;;;;;;;;;;;;;;;31.27;61.98;101048.50;5062918;28;66975;-35
2023/12/06 03:25:57;;;;;;;;;;;;;;;31.30;61.88;101056.19;5075560;27;71580;-35
2023/12/06 03:28:27;;;;;;;;;;;;;;;31.32;62.07;101045.97;5064729;28;65953;-34
2023/12/06 03:30:57;;;;;;;;;;;;;;;31.33;62.28;101042.19;5069464;27;70625;-35
2023/12/06 03:33:26;;;;;;;;;;;;;;;31.35;62.05;101040.09;5060094;28;66646;-48
2023/12/06 03:35:56;;;;;;;;;;;;;;;31.37;62.00;101032.59;5070323;28;70433;-36
2023/12/06 03:38:26;;;;;;;;;;;;;;;31.39;61.96;101030.50;5058963;28;66789;-35
2023/12/06 03:40:57;;;;;;;;;;;;;;;31.40;61.59;101029.47;5067561;28;70691;-34
2023/12/06 03:43:27;;;;;;;;;;;;;;;31.43;61.55;101020.06;5064516;27;66426;-34
2023/12/06 03:45:57;;;;;;;;;;;;;;;31.44;61.87;101021.72;5067610;28;70591;-35
2023/12/06 03:48:27;;;;;;;;;;;;;;;31.46;61.75;101023.16;5069362;27;65424;-35
2023/12/06 03:50:57;;;;;;;;;;;;;;;31.48;61.76;101017.50;5061218;28;69670;-36
2023/12/06 03:53:27;;;;;;;;;;;;;;;31.49;61.71;101009.16;5060012;28;66582;-37
2023/12/06 03:55:56;;;;;;;;;;;;;;;31.53;62.02;100998.69;5059744;28;70051;-35
2023/12/06 03:58:27;;;;;;;;;;;;;;;31.55;61.67;100997.41;5068066;28;66888;-34
2023/12/06 04:00:57;;;;;;;;;;;;;;;31.57;61.78;100989.91;5074697;28;68974;-35
2023/12/06 04:03:27;;;;;;;;;;;;;;;31.59;61.36;100987.81;5069984;28;66421;-35
2023/12/06 04:05:57;;;;;;;;;;;;;;;31.61;61.36;100991.09;5065604;28;69200;-35
2023/12/06 04:08:26;;;;;;;;;;;;;;;31.63;61.67;100981.94;5078241;27;66267;-35
2023/12/06 04:10:56;;;;;;;;;;;;;;;31.65;61.27;100975.22;5058023;28;69665;-36
2023/12/06 04:13:26;;;;;;;;;;;;;;;31.67;61.44;100973.09;5065420;28;66966;-36
2023/12/06 04:15:55;;;;;;;;;;;;;;;31.69;61.15;100964.75;5063589;28;70962;-34
2023/12/06 04:18:25;;;;;;;;;;;;;;;31.72;61.65;100964.31;5063935;28;65969;-35
2023/12/06 04:20:55;;;;;;;;;;;;;;;31.73;61.30;100955.09;5061450;27;68294;-36
2023/12/06 04:23:24;;;;;;;;;;;;;;;31.75;61.29;100953.81;5076357;28;66151;-35
2023/12/06 04:25:54;;;;;;;;;;;;;;;31.78;61.20;100955.25;5059243;28;69754;-36
2023/12/06 04:28:24;;;;;;;;;;;;;;;31.80;61.15;100945.03;5078004;28;66383;-36
2023/12/06 04:30:54;;;;;;;;;;;;;;;31.81;61.03;100943.97;5080914;28;69933;-35
2023/12/06 04:33:24;;;;;;;;;;;;;;;31.82;61.09;100941.03;5065823;27;66269;-34
2023/12/06 04:35:54;;;;;;;;;;;;;;;31.85;61.01;100937.06;5070122;28;69973;-35
2023/12/06 04:38:23;;;;;;;;;;;;;;;31.87;61.20;100932.19;5061803;27;66018;-35
2023/12/06 04:40:53;;;;;;;;;;;;;;;31.88;61.18;100923.03;5060455;28;70601;-34
2023/12/06 04:43:23;;;;;;;;;;;;;;;31.89;61.01;100911.13;5067864;27;65731;-36
2023/12/06 04:45:53;;;;;;;;;;;;;;;31.91;61.11;100919.91;5061801;28;70253;-35
2023/12/06 04:48:23;;;;;;;;;;;;;;;31.93;60.97;100917.78;5065336;28;66662;-36
2023/12/06 04:50:53;;;;;;;;;;;;;;;31.96;60.91;100914.63;5066622;27;70130;-35
2023/12/06 04:53:22;;;;;;;;;;;;;;;31.97;60.87;100910.03;5065578;28;66403;-35
2023/12/06 04:55:52;;;;;;;;;;;;;;;31.98;60.87;100907.09;5064400;28;70275;-36
2023/12/06 04:58:22;;;;;;;;;;;;;;;32.00;60.92;100907.66;5073556;28;66669;-35
2023/12/06 05:00:52;;;;;;;;;;;;;;;32.01;60.75;100903.91;5064299;28;70084;-35
2023/12/06 05:03:22;;;;;;;;;;;;;;;32.03;60.67;100903.69;5061295;28;66474;-35
2023/12/06 05:05:52;;;;;;;;;;;;;;;32.03;60.83;100899.06;5075402;28;70536;-35
2023/12/06 05:08:25;;;;;;;;;;;;;;;32.05;60.94;100894.25;5061808;28;66787;-35
2023/12/06 05:10:55;;;;;;;;;;;;;;;32.06;60.78;100895.06;5070965;28;69753;-35
2023/12/06 05:13:26;;;;;;;;;;;;;;;32.08;60.95;100886.72;5062028;28;66167;-36
2023/12/06 05:15:56;;;;;;;;;;;;;;;32.08;60.65;100881.28;5073140;27;70170;-35
2023/12/06 05:18:26;;;;;;;;;;;;;;;32.10;60.86;100880.00;5059093;28;67073;-35
2023/12/06 05:20:57;;;;;;;;;;;;;;;32.11;61.00;100869.97;5061124;28;70348;-35
2023/12/06 05:23:27;;;;;;;;;;;;;;;32.12;60.81;100871.63;5059848;27;67046;-36
2023/12/06 05:25:57;;;;;;;;;;;;;;;32.13;60.62;100871.41;5064822;28;70186;-35
2023/12/06 05:28:27;;;;;;;;;;;;;;;32.14;60.88;100864.09;5067576;27;66022;-36
2023/12/06 05:30:57;;;;;;;;;;;;;;;32.16;60.71;100864.69;5063667;28;70609;-36
2023/12/06 05:33:27;;;;;;;;;;;;;;;32.17;60.53;100863.63;5061647;27;65561;-36
2023/12/06 05:35:57;;;;;;;;;;;;;;;32.18;60.51;100859.84;5061395;28;69540;-35
2023/12/06 05:38:26;;;;;;;;;;;;;;;32.19;60.57;100861.53;5061194;28;65654;-35
2023/12/06 05:40:56;;;;;;;;;;;;;;;32.19;60.52;100856.91;5057513;28;70390;-35
2023/12/06 05:43:26;;;;;;;;;;;;;;;32.20;60.63;100855.03;5063082;27;66116;-35
2023/12/06 05:45:56;;;;;;;;;;;;;;;32.21;60.57;100845.84;5060978;28;69949;-35
2023/12/06 05:48:26;;;;;;;;;;;;;;;32.21;60.33;100848.56;5059572;28;67057;-35
2023/12/06 05:50:56;;;;;;;;;;;;;;;32.24;60.42;100845.38;5075817;28;69881;-35
2023/12/06 05:53:25;;;;;;;;;;;;;;;32.23;60.43;100835.56;5060302;28;65369;-35
2023/12/06 05:55:56;;;;;;;;;;;;;;;32.24;60.28;100837.25;5070892;28;70445;-39
2023/12/06 05:58:25;;;;;;;;;;;;;;;32.25;60.33;100828.03;5061108;28;66290;-35
2023/12/06 06:00:56;;;;;;;;;;;;;;;32.26;60.17;100818.81;5068433;28;70268;-35
2023/12/06 06:03:26;;;;;;;;;;;;;;;32.25;60.34;100818.00;5066798;27;66867;-36
2023/12/06 06:05:56;;;;;;;;;;;;;;;32.28;60.30;100817.53;5078579;28;69095;-35
2023/12/06 06:08:26;;;;;;;;;;;;;;;32.28;60.18;100812.09;5067379;27;65341;-36
2023/12/06 06:10:56;;;;;;;;;;;;;;;32.30;60.30;100811.88;5056608;28;69975;-34
2023/12/06 06:13:29;;;;;;;;;;;;;;;32.31;60.20;100805.38;5059769;28;66923;-35
2023/12/06 06:15:59;;;;;;;;;;;;;;;32.31;60.06;100801.84;5058537;28;70360;-35
2023/12/06 06:18:29;;;;;;;;;;;;;;;32.32;60.03;100804.34;5065468;28;67932;-35
2023/12/06 06:21:05;;;;;;;;;;;;;;;32.33;60.19;100797.03;5060612;28;70053;-36
2023/12/06 06:23:35;;;;;;;;;;;;;;;32.33;60.10;100799.72;5065426;27;66826;-35
2023/12/06 06:26:04;;;;;;;;;;;;;;;32.32;60.09;100793.47;5073579;28;70087;-36
2023/12/06 06:28:34;;;;;;;;;;;;;;;32.34;60.23;100794.06;5066981;28;67109;-35
2023/12/06 06:31:04;;;;;;;;;;;;;;;32.34;59.96;100791.34;5075801;27;69954;-35
2023/12/06 06:33:34;;;;;;;;;;;;;;;32.35;60.09;100787.59;5062962;27;65820;-35
2023/12/06 06:36:04;;;;;;;;;;;;;;;32.36;60.04;100786.50;5068873;27;69285;-35
2023/12/06 06:38:35;;;;;;;;;;;;;;;32.35;60.10;100776.72;5058716;28;67063;-37
2023/12/06 06:41:05;;;;;;;;;;;;;;;32.37;60.38;100776.47;5064516;27;70058;-36
2023/12/06 06:43:36;;;;;;;;;;;;;;;32.37;60.02;100771.88;5078830;28;66514;-35
2023/12/06 06:46:08;;;;;;;;;;;;;;;32.39;60.01;100772.47;5064436;27;70428;-35
2023/12/06 06:48:38;;;;;;;;;;;;;;;32.39;59.96;100772.47;5066661;27;66250;-36
2023/12/06 06:51:09;;;;;;;;;;;;;;;32.40;59.83;100766.00;5073140;27;70546;-36
2023/12/06 06:53:39;;;;;;;;;;;;;;;32.41;59.98;100764.94;5070499;28;66088;-36
2023/12/06 06:56:09;;;;;;;;;;;;;;;32.41;59.90;100766.81;5077998;28;70261;-36
2023/12/06 06:58:41;;;;;;;;;;;;;;;32.43;59.93;100748.38;5065340;28;67734;-36
2023/12/06 07:01:11;;;;;;;;;;;;;;;32.43;60.06;100754.66;5071104;28;69689;-36
2023/12/06 07:03:40;;;;;;;;;;;;;;;32.44;59.96;100740.03;5060119;28;66252;-35
2023/12/06 07:06:10;;;;;;;;;;;;;;;32.46;59.96;100743.38;5073791;28;70856;-35
2023/12/06 07:08:40;;;;;;;;;;;;;;;32.47;60.03;100744.19;5065253;27;65456;-36
2023/12/06 07:11:13;;;;;;;;;;;;;;;32.49;60.10;100734.75;5061416;28;70266;-36
2023/12/06 07:13:43;;;;;;;;;;;;;;;32.50;60.01;100732.84;5074270;28;66646;-36
2023/12/06 07:16:13;;;;;;;;;;;;;;;32.52;59.95;100729.91;5068999;27;70369;-34
2023/12/06 07:18:44;;;;;;;;;;;;;;;32.52;60.03;100730.75;5064815;28;66428;-34
2023/12/06 07:21:15;;;;;;;;;;;;;;;32.54;60.04;100730.50;5066384;27;69413;-36
2023/12/06 07:23:45;;;;;;;;;;;;;;;32.55;60.09;100729.44;5059554;28;66342;-35
2023/12/06 07:26:14;;;;;;;;;;;;;;;32.55;59.97;100727.56;5070373;28;69893;-34
2023/12/06 07:28:44;;;;;;;;;;;;;;;32.46;59.96;100708.06;5058102;28;66271;-35
2023/12/06 07:31:14;;;;;;;;;;;;;;;32.59;59.90;100725.19;5071970;28;70315;-35
2023/12/06 07:33:44;;;;;;;;;;;;;;;32.60;59.90;100729.56;5060205;28;66730;-34
2023/12/06 07:36:14;;;;;;;;;;;;;;;32.61;59.88;100723.06;5068910;28;69867;-35
2023/12/06 07:38:43;;;;;;;;;;;;;;;32.62;59.82;100722.00;5064572;28;66890;-35
2023/12/06 07:41:13;;;;;;;;;;;;;;;32.63;59.99;100726.38;5065455;27;69878;-34
2023/12/06 07:43:43;;;;;;;;;;;;;;;32.64;59.90;100712.56;5079557;27;67299;-34
2023/12/06 07:46:13;;;;;;;;;;;;;;;32.66;59.82;100721.28;5077192;27;69917;-35
2023/12/06 07:48:43;;;;;;;;;;;;;;;32.67;59.96;100716.69;5073483;27;66223;-34
2023/12/06 07:51:13;;;;;;;;;;;;;;;32.68;60.04;100718.31;5068708;28;70611;-34
2023/12/06 07:53:43;;;;;;;;;;;;;;;32.69;59.93;100709.13;5068666;28;66865;-34
2023/12/06 07:56:14;;;;;;;;;;;;;;;32.69;59.95;100703.72;5064970;27;69964;-35
2023/12/06 07:58:43;;;;;;;;;;;;;;;32.71;60.04;100717.88;5064547;28;66405;-35
2023/12/06 08:01:13;;;;;;;;;;;;;;;32.71;59.84;100713.28;5082116;28;69780;-35
2023/12/06 08:03:44;;;;;;;;;;;;;;;32.74;59.90;100716.59;5068580;27;66653;-35
2023/12/06 08:06:14;;;;;;;;;;;;;;;32.75;59.91;100713.63;5073737;27;69676;-35
2023/12/06 08:08:43;;;;;;;;;;;;;;;32.77;59.82;100719.66;5066395;28;66596;-35
2023/12/06 08:11:13;;;;;;;;;;;;;;;32.79;59.88;100714.81;5082633;27;69756;-34
2023/12/06 08:13:43;;;;;;;;;;;;;;;32.81;59.67;100715.38;5070977;27;66984;-34
2023/12/06 08:16:13;;;;;;;;;;;;;;;32.83;59.58;100713.25;5069471;27;70100;-35
2023/12/06 08:18:43;;;;;;;;;;;;;;;32.85;59.78;100719.28;5073693;28;66796;-34
2023/12/06 08:21:13;;;;;;;;;;;;;;;32.86;59.96;100726.38;5073420;27;69287;-35
2023/12/06 08:23:42;;;;;;;;;;;;;;;32.88;59.89;100718.81;5075900;27;66414;-35
2023/12/06 08:26:12;;;;;;;;;;;;;;;32.89;59.90;100723.16;5069424;27;70174;-34
2023/12/06 08:28:42;;;;;;;;;;;;;;;32.90;59.79;100724.84;5071000;27;66494;-35
2023/12/06 08:31:12;;;;;;;;;;;;;;;32.93;59.87;100732.50;5065233;27;70214;-35
2023/12/06 08:33:42;;;;;;;;;;;;;;;32.96;59.75;100730.34;5068184;28;66722;-35
2023/12/06 08:36:12;;;;;;;;;;;;;;;32.98;59.94;100737.22;5067787;28;69525;-35
2023/12/06 08:38:44;;;;;;;;;;;;;;;32.98;59.69;100745.38;5075605;27;66430;-35
2023/12/06 08:41:14;;;;;;;;;;;;;;;32.98;59.86;100739.94;5076349;28;69879;-35
2023/12/06 08:43:43;;;;;;;;;;;;;;;33.00;59.68;100748.72;5074938;27;67053;-35
2023/12/06 08:46:13;;;;;;;;;;;;;;;33.01;59.67;100750.34;5070812;27;70195;-35
2023/12/06 08:48:43;;;;;;;;;;;;;;;33.03;59.77;100753.66;5073197;27;66267;-35
2023/12/06 08:51:13;;;;;;;;;;;;;;;33.06;59.84;100757.78;5065748;28;69964;-35
2023/12/06 08:53:43;;;;;;;;;;;;;;;33.06;60.09;100750.47;5066253;27;65520;-35
2023/12/06 08:56:13;;;;;;;;;;;;;;;33.07;59.77;100759.44;5073655;27;70100;-36
2023/12/06 08:58:43;;;;;;;;;;;;;;;33.10;59.95;100764.44;5072255;27;66844;-34
2023/12/06 09:01:12;;;;;;;;;;;;;;;33.09;60.02;100769.00;5066649;28;70073;-35
2023/12/06 09:03:42;;;;;;;;;;;;;;;33.11;60.08;100766.06;5069151;27;67131;-35
2023/12/06 09:06:12;;;;;;;;;;;;;;;33.12;59.83;100773.16;5071657;27;70439;-36
2023/12/06 09:08:42;;;;;;;;;;;;;;;33.14;60.18;100787.34;5077011;27;65294;-36
2023/12/06 09:11:18;;;;;;;;;;;;;;;33.15;59.88;100792.53;5076950;27;69055;-36
2023/12/06 09:13:48;;;;;;;;;;;;;;;33.15;60.11;100788.97;5068363;27;66574;-36
2023/12/06 09:16:18;;;;;;;;;;;;;;;33.17;60.16;100791.47;5071059;27;70361;-36
2023/12/06 09:18:48;;;;;;;;;;;;;;;32.84;63.06;100793.69;5073875;28;65831;-39
2023/12/06 09:21:17;;;;;;;;;;;;;;;32.69;64.50;100801.47;5078776;28;70159;-37
2023/12/06 09:23:48;;;;;;;;;;;;;;;32.62;65.88;100795.31;5076155;27;66588;-37
2023/12/06 09:26:17;;;;;;;;;;;;;;;32.56;66.56;100809.84;5063369;28;70324;-36
2023/12/06 09:28:47;;;;;;;;;;;;;;;32.52;66.74;100808.66;5063524;28;66268;-35
2023/12/06 09:31:16;;;;;;;;;;;;;;;32.71;65.67;100799.38;5070459;28;70670;-36
2023/12/06 09:33:46;;;;;;;;;;;;;;;32.85;64.72;100805.41;5065440;28;66058;-34
2023/12/06 09:36:16;;;;;;;;;;;;;;;32.94;64.50;100798.53;5068949;27;70316;-36
2023/12/06 09:38:46;;;;;;;;;;;;;;;33.01;64.46;100810.13;5076594;28;66623;-34
2023/12/06 09:41:17;;;;;;;;;;;;;;;33.04;63.96;100803.41;5070655;27;70690;-35
2023/12/06 09:43:50;;;;;;;;;;;;;;;33.08;63.93;100805.41;5068039;27;65505;-35
2023/12/06 09:46:20;;;;;;;;;;;;;;;33.12;64.02;100794.88;5067857;27;69366;-35
2023/12/06 09:48:50;;;;;;;;;;;;;;;33.15;63.72;100806.13;5062038;27;65571;-37
2023/12/06 09:51:20;;;;;;;;;;;;;;;33.16;63.61;100801.53;5073313;27;70571;-35
2023/12/06 09:53:50;;;;;;;;;;;;;;;33.16;63.76;100815.09;5074037;27;66091;-35
2023/12/06 09:56:21;;;;;;;;;;;;;;;33.17;63.90;100814.03;5067196;27;69991;-35
2023/12/06 09:58:50;;;;;;;;;;;;;;;33.17;63.98;100818.66;5069419;27;65909;-35
2023/12/06 10:01:21;;;;;;;;;;;;;;;33.17;64.22;100824.09;5073037;27;69115;-35
2023/12/06 10:03:51;;;;;;;;;;;;;;;33.17;63.86;100830.34;5064209;28;66475;-35
2023/12/06 10:06:21;;;;;;;;;;;;;;;33.17;63.99;100834.97;5072002;28;70160;-35
2023/12/06 10:08:54;;;;;;;;;;;;;;;33.16;63.68;100839.56;5064602;28;66082;-35
2023/12/06 10:11:23;;;;;;;;;;;;;;;33.17;63.78;100845.81;5065572;28;69933;-34
2023/12/06 10:13:53;;;;;;;;;;;;;;;33.15;63.82;100846.91;5066532;27;65970;-35
2023/12/06 10:16:23;;;;;;;;;;;;;;;33.15;63.54;100849.63;5065166;28;69907;-35
2023/12/06 10:18:54;;;;;;;;;;;;;;;33.15;63.46;100854.22;5068466;28;66403;-35
2023/12/06 10:21:24;;;;;;;;;;;;;;;33.15;63.64;100855.06;5066616;28;70727;-34
2023/12/06 10:23:55;;;;;;;;;;;;;;;33.13;63.35;100857.19;5073113;28;65726;-35
2023/12/06 10:26:26;;;;;;;;;;;;;;;33.12;63.33;100860.13;5062761;28;68857;-35
2023/12/06 10:28:58;;;;;;;;;;;;;;;32.95;65.12;100865.41;5062515;28;65451;-35
2023/12/06 10:31:27;;;;;;;;;;;;;;;32.65;66.45;100870.88;5073302;28;69948;-35
2023/12/06 10:33:57;;;;;;;;;;;;;;;32.55;67.38;100874.19;5061017;28;67010;-34
2023/12/06 10:36:27;;;;;;;;;;;;;;;32.49;67.74;100875.94;5062569;28;68753;-35
2023/12/06 10:38:58;;;;;;;;;;;;;;;32.40;68.08;100874.59;5072700;28;66509;-36
2023/12/06 10:41:31;;;;;;;;;;;;;;;32.38;68.28;100876.69;5070684;28;68887;-36
2023/12/06 10:44:02;;;;;;;;;;;;;;;32.35;68.44;100881.78;5075025;27;65568;-35
2023/12/06 10:46:32;;;;;;;;;;;;;;;32.32;68.76;100883.06;5064479;28;70461;-35
2023/12/06 10:49:02;;;;;;;;;;;;;;;32.27;68.84;100885.63;5063953;28;66197;-35
2023/12/06 10:51:34;;;;;;;;;;;;;;;32.25;69.16;100882.31;5072148;27;70542;-35
2023/12/06 10:54:05;;;;;;;;;;;;;;;32.27;68.92;100882.91;5062890;28;66664;-35
2023/12/06 10:56:34;;;;;;;;;;;;;;;32.47;67.65;100885.38;5068461;28;70401;-37
2023/12/06 10:59:04;;;;;;;;;;;;;;;32.58;66.92;100886.47;5063519;27;66184;-35
2023/12/06 11:01:35;;;;;;;;;;;;;;;32.65;66.42;100881.75;5072320;27;69862;-35
2023/12/06 11:04:06;;;;;;;;;;;;;;;32.68;66.28;100882.13;5073132;27;65462;-36
2023/12/06 11:06:39;;;;;;;;;;;;;;;32.72;66.04;100894.19;5070838;28;70042;-35
2023/12/06 11:09:27;;;;;;;;;;;;;;;32.74;66.03;100896.69;5061364;27;65883;-35
2023/12/06 11:11:57;;;;;;;;;;;;;;;32.77;65.65;100901.66;5064624;28;68958;-34
2023/12/06 11:14:27;;;;;;;;;;;;;;;32.77;65.65;100896.22;5063921;27;66833;-35
2023/12/06 11:17:06;;;;;;;;;;;;;;;32.78;65.66;100895.13;5063239;27;70334;-36
2023/12/06 11:19:37;;;;;;;;;;;;;;;32.79;65.57;100894.09;5063005;27;66936;-35
2023/12/06 11:22:07;;;;;;;;;;;;;;;32.80;65.32;100898.47;5061982;27;70109;-36
2023/12/06 11:24:37;;;;;;;;;;;;;;;32.80;65.29;100906.59;5071342;27;66402;-36
2023/12/06 11:27:08;;;;;;;;;;;;;;;32.79;65.26;100904.97;5066239;28;69954;-35
2023/12/06 11:29:39;;;;;;;;;;;;;;;32.78;65.34;100900.56;5070246;28;68131;-35
2023/12/06 11:32:14;;;;;;;;;;;;;;;32.78;65.34;100919.59;5067650;27;69534;-35
2023/12/06 11:34:55;;;;;;;;;;;;;;;32.78;65.42;100919.59;5065338;27;66888;-35
2023/12/06 11:37:28;;;;;;;;;;;;;;;32.78;65.42;100925.03;5066664;27;69927;-35
2023/12/06 11:40:20;;;;;;;;;;;;;;;32.76;65.46;100927.13;5060498;27;66232;-36
2023/12/06 11:42:57;;;;;;;;;;;;;;;32.76;65.38;100935.28;5084184;27;70465;-35
2023/12/06 11:45:28;;;;;;;;;;;;;;;32.74;65.31;100934.72;5071728;28;65573;-36
2023/12/06 11:48:05;;;;;;;;;;;;;;;32.73;65.35;100938.47;5057852;27;70691;-35
2023/12/06 11:50:47;;;;;;;;;;;;;;;32.72;65.39;100942.25;5076214;27;66647;-37
2023/12/06 11:53:17;;;;;;;;;;;;;;;32.70;65.40;100945.19;5071188;27;69137;-35
2023/12/06 11:55:47;;;;;;;;;;;;;;;32.70;65.34;100955.22;5065504;27;65460;-36
2023/12/06 11:58:17;;;;;;;;;;;;;;;32.68;65.50;100968.19;5076358;27;70933;-36
2023/12/06 12:00:48;;;;;;;;;;;;;;;32.38;68.10;100963.56;5063384;27;66349;-35
2023/12/06 12:03:19;;;;;;;;;;;;;;;32.30;69.25;100971.22;5068926;28;70583;-35
2023/12/06 12:05:50;;;;;;;;;;;;;;;32.23;70.67;100976.69;5082070;28;66744;-35
2023/12/06 12:08:20;;;;;;;;;;;;;;;32.17;71.06;100989.28;5070979;27;70289;-36
2023/12/06 12:10:50;;;;;;;;;;;;;;;32.16;71.20;100981.41;5068511;27;66419;-38
2023/12/06 12:13:23;;;;;;;;;;;;;;;32.15;71.31;100980.56;5073407;28;69708;-35
2023/12/06 12:15:55;;;;;;;;;;;;;;;32.14;71.72;100989.75;5068581;28;66792;-41
2023/12/06 12:18:25;;;;;;;;;;;;;;;32.26;70.00;100998.81;5060216;28;69038;-36
2023/12/06 12:20:58;;;;;;;;;;;;;;;32.36;68.97;101003.69;5080012;27;66376;-42
2023/12/06 12:23:29;;;;;;;;;;;;;;;32.42;68.25;101010.91;5080301;27;69824;-37
2023/12/06 12:25:58;;;;;;;;;;;;;;;32.49;67.65;101009.00;5083990;27;66517;-35
2023/12/06 12:28:29;;;;;;;;;;;;;;;32.53;67.36;101013.97;5083198;27;69781;-37
2023/12/06 12:31:06;;;;;;;;;;;;;;;32.55;67.00;101018.13;5077056;27;66556;-36
2023/12/06 12:33:36;;;;;;;;;;;;;;;32.57;67.03;101026.00;5077327;27;70328;-36
2023/12/06 12:36:06;;;;;;;;;;;;;;;32.58;67.23;101020.38;5080110;27;65864;-36
2023/12/06 12:38:38;;;;;;;;;;;;;;;32.59;67.05;101018.47;5073207;27;70713;-35
2023/12/06 12:41:09;;;;;;;;;;;;;;;32.59;67.00;101018.47;5078627;27;66599;-36
2023/12/06 12:43:39;;;;;;;;;;;;;;;32.60;66.65;101014.72;5067257;27;70060;-37
2023/12/06 12:46:10;;;;;;;;;;;;;;;32.59;66.97;101018.47;5067844;27;64865;-35
2023/12/06 12:48:40;;;;;;;;;;;;;;;32.59;67.17;101013.88;5083201;27;69581;-37
2023/12/06 12:51:11;;;;;;;;;;;;;;;32.58;67.07;101017.66;5075329;28;66658;-36